createdAt,value
2022-08-23T00:02:27.137Z,61.00
2022-08-23T00:05:08.129Z,61.39
2022-08-23T00:07:39.158Z,61.33
2022-08-23T00:10:09.001Z,62.22
2022-08-23T00:12:36.313Z,62.56
2022-08-23T00:15:03.645Z,62.53
2022-08-23T00:17:34.241Z,62.76
2022-08-23T00:20:08.377Z,63.12
2022-08-23T00:22:36.225Z,63.45
2022-08-23T00:25:04.235Z,63.38
2022-08-23T00:27:30.847Z,63.58
2022-08-23T00:29:58.327Z,63.50
2022-08-23T00:32:32.066Z,63.89
2022-08-23T00:35:00.436Z,64.08
2022-08-23T00:37:28.797Z,64.53
2022-08-23T00:39:55.586Z,64.88
2022-08-23T00:43:00.341Z,65.16
2022-08-23T00:46:01.153Z,65.37
2022-08-23T00:48:28.020Z,65.60
2022-08-23T00:51:08.281Z,65.63
2022-08-23T00:53:39.244Z,65.91
2022-08-23T00:56:09.209Z,66.37
2022-08-23T00:58:36.662Z,66.40
2022-08-23T01:01:06.193Z,66.44
2022-08-23T01:03:38.771Z,66.48
2022-08-23T01:06:38.089Z,66.94
2022-08-23T01:09:11.015Z,67.07
2022-08-23T01:11:57.373Z,66.92
2022-08-23T01:14:32.509Z,67.01
2022-08-23T01:17:07.249Z,67.49
2022-08-23T01:19:41.353Z,67.32
2022-08-23T01:22:37.276Z,67.73
2022-08-23T01:25:09.188Z,67.95
2022-08-23T01:27:43.903Z,67.89
2022-08-23T01:30:17.226Z,68.03
2022-08-23T01:32:48.626Z,68.33
2022-08-23T01:35:16.742Z,68.19
2022-08-23T01:37:44.729Z,68.32
2022-08-23T01:40:12.086Z,68.83
2022-08-23T01:42:41.898Z,68.61
2022-08-23T01:45:13.288Z,69.17
2022-08-23T01:47:40.814Z,69.11
2022-08-23T01:50:09.277Z,69.38
2022-08-23T01:52:37.765Z,68.87
2022-08-23T01:55:13.377Z,68.90
2022-08-23T01:57:42.859Z,69.15
2022-08-23T02:00:13.454Z,69.15
2022-08-23T02:02:41.176Z,69.50
2022-08-23T02:05:10.286Z,69.72
2022-08-23T02:07:38.088Z,69.79
2022-08-23T02:10:08.395Z,69.79
2022-08-23T02:12:37.338Z,69.92
2022-08-23T02:15:17.191Z,69.97
2022-08-23T02:17:46.931Z,70.02
2022-08-23T02:20:14.299Z,69.99
2022-08-23T02:22:41.708Z,69.82
2022-08-23T02:25:08.728Z,69.52
2022-08-23T02:27:35.970Z,69.88
2022-08-23T02:30:03.136Z,69.29
2022-08-23T02:32:30.001Z,69.79
2022-08-23T02:35:05.214Z,69.73
2022-08-23T02:37:34.660Z,69.60
2022-08-23T02:40:03.074Z,70.20
2022-08-23T02:42:30.492Z,69.71
2022-08-23T02:44:57.734Z,70.00
2022-08-23T02:47:24.637Z,69.78
2022-08-23T02:50:08.331Z,69.80
2022-08-23T02:52:35.818Z,69.44
2022-08-23T02:55:03.031Z,69.41
2022-08-23T02:57:31.517Z,69.35
2022-08-23T03:00:00.649Z,69.16
2022-08-23T03:02:27.536Z,69.77
2022-08-23T03:04:54.416Z,69.93
2022-08-23T03:07:21.525Z,69.36
2022-08-23T03:09:48.288Z,69.02
2022-08-23T03:12:15.096Z,69.52
2022-08-23T03:14:47.707Z,69.53
2022-08-23T03:17:14.769Z,69.49
2022-08-23T03:19:41.604Z,69.60
2022-08-23T03:22:08.571Z,69.46
2022-08-23T03:24:36.478Z,69.46
2022-08-23T03:27:05.374Z,69.20
2022-08-23T03:29:33.666Z,69.53
2022-08-23T03:32:04.603Z,69.18
2022-08-23T03:34:35.294Z,69.98
2022-08-23T03:37:02.094Z,70.28
2022-08-23T03:39:28.913Z,69.88
2022-08-23T03:41:58.340Z,70.01
2022-08-23T03:44:27.908Z,70.27
2022-08-23T03:46:54.510Z,71.06
2022-08-23T03:49:21.394Z,71.42
2022-08-23T03:51:52.890Z,71.59
2022-08-23T03:54:20.307Z,71.59
2022-08-23T03:56:55.600Z,71.86
2022-08-23T03:59:24.023Z,71.69
2022-08-23T04:01:50.858Z,71.64
2022-08-23T04:04:17.819Z,71.52
2022-08-23T04:07:17.770Z,71.39
2022-08-23T04:09:44.654Z,71.54
2022-08-23T04:12:17.843Z,72.26
2022-08-23T04:14:45.759Z,72.39
2022-08-23T04:17:14.611Z,72.98
2022-08-23T04:19:42.031Z,72.79
2022-08-23T04:22:17.989Z,72.69
2022-08-23T04:24:45.807Z,72.67
2022-08-23T04:27:13.196Z,72.38
2022-08-23T04:29:40.142Z,72.28
2022-08-23T04:32:11.643Z,72.91
2022-08-23T04:34:45.413Z,72.85
2022-08-23T04:37:13.178Z,72.44
2022-08-23T04:39:58.575Z,72.57
2022-08-23T04:42:30.657Z,72.24
2022-08-23T04:44:57.684Z,72.49
2022-08-23T04:47:24.333Z,72.38
2022-08-23T04:49:54.248Z,72.35
2022-08-23T04:52:20.903Z,72.73
2022-08-23T04:54:48.428Z,71.99
2022-08-23T04:57:38.433Z,72.54
2022-08-23T05:00:07.206Z,72.35
2022-08-23T05:02:34.943Z,72.65
2022-08-23T05:05:01.702Z,72.71
2022-08-23T05:07:41.733Z,72.70
2022-08-23T05:10:13.260Z,72.75
2022-08-23T05:12:42.788Z,72.18
2022-08-23T05:15:11.087Z,71.81
2022-08-23T05:17:43.229Z,71.98
2022-08-23T05:20:10.690Z,71.39
2022-08-23T05:22:40.982Z,71.77
2022-08-23T05:25:52.989Z,71.52
2022-08-23T05:28:34.630Z,70.74
2022-08-23T05:31:10.499Z,70.59
2022-08-23T05:33:46.274Z,70.55
2022-08-23T05:36:16.968Z,70.04
2022-08-23T05:38:44.286Z,69.92
2022-08-23T05:41:11.941Z,69.79
2022-08-23T05:43:38.824Z,69.44
2022-08-23T05:46:12.924Z,69.52
2022-08-23T05:48:47.261Z,69.28
2022-08-23T05:51:29.528Z,69.47
2022-08-23T05:54:03.348Z,69.46
2022-08-23T05:56:42.535Z,69.00
2022-08-23T05:59:16.824Z,68.71
2022-08-23T06:01:44.145Z,68.42
2022-08-23T06:04:15.566Z,68.51
2022-08-23T06:06:44.349Z,68.13
2022-08-23T06:09:15.068Z,67.94
2022-08-23T06:11:45.192Z,67.95
2022-08-23T06:14:13.101Z,67.49
2022-08-23T06:16:42.861Z,66.95
2022-08-23T06:19:13.260Z,66.45
2022-08-23T06:21:49.552Z,66.24
2022-08-23T06:24:23.360Z,65.94
2022-08-23T06:27:19.087Z,65.68
2022-08-23T06:29:46.164Z,65.93
2022-08-23T06:32:39.214Z,65.73
2022-08-23T06:35:44.220Z,65.41
2022-08-23T06:38:15.640Z,65.26
2022-08-23T06:40:46.069Z,64.84
2022-08-23T06:43:24.315Z,64.61
2022-08-23T06:46:28.301Z,63.91
2022-08-23T06:48:57.773Z,63.74
2022-08-23T06:51:27.880Z,63.90
2022-08-23T06:54:03.151Z,64.51
2022-08-23T06:56:54.059Z,64.47
2022-08-23T06:59:43.520Z,63.62
2022-08-23T07:02:33.030Z,63.37
2022-08-23T07:05:18.318Z,63.24
2022-08-23T07:08:05.383Z,63.29
2022-08-23T07:10:32.122Z,63.13
2022-08-23T07:12:58.856Z,62.52
2022-08-23T07:15:25.659Z,62.24
2022-08-23T07:17:52.616Z,61.52
2022-08-23T07:20:19.304Z,61.13
2022-08-23T07:22:46.088Z,60.74
2022-08-23T07:25:13.591Z,60.26
2022-08-23T07:27:43.644Z,60.14
2022-08-23T07:30:12.945Z,59.52
2022-08-23T07:32:40.600Z,59.16
2022-08-23T07:35:21.494Z,58.87
2022-08-23T07:37:49.535Z,58.71
2022-08-23T07:40:20.432Z,58.60
2022-08-23T07:42:50.363Z,58.39
2022-08-23T07:45:18.771Z,58.00
2022-08-23T07:47:51.175Z,57.78
2022-08-23T07:50:18.533Z,57.73
2022-08-23T07:52:46.542Z,57.50
2022-08-23T07:55:14.773Z,57.28
2022-08-23T07:58:01.940Z,56.88
2022-08-23T08:00:38.435Z,55.91
2022-08-23T08:03:23.784Z,55.83
2022-08-23T08:06:19.905Z,55.63
2022-08-23T08:08:46.552Z,55.39
2022-08-23T08:11:16.433Z,54.87
2022-08-23T08:13:45.449Z,54.61
2022-08-23T08:16:31.786Z,54.29
2022-08-23T08:19:01.482Z,54.33
2022-08-23T08:21:47.112Z,54.66
2022-08-23T08:24:24.998Z,54.44
2022-08-23T08:26:56.966Z,54.29
2022-08-23T08:29:23.689Z,54.01
2022-08-23T08:31:54.118Z,53.99
2022-08-23T08:34:21.597Z,53.89
2022-08-23T08:36:54.575Z,53.75
2022-08-23T08:39:28.157Z,53.56
2022-08-23T08:42:14.318Z,52.84
2022-08-23T08:45:15.782Z,52.50
2022-08-23T08:47:50.003Z,52.29
2022-08-23T08:50:41.276Z,52.05
2022-08-23T08:53:16.273Z,51.80
2022-08-23T08:56:21.064Z,51.79
2022-08-23T08:58:58.791Z,51.45
2022-08-23T09:01:28.768Z,50.85
2022-08-23T09:03:56.897Z,50.68
2022-08-23T09:06:27.780Z,50.54
2022-08-23T09:09:12.785Z,50.52
2022-08-23T09:12:11.745Z,50.38
2022-08-23T09:15:03.954Z,49.92
2022-08-23T09:17:44.202Z,49.76
2022-08-23T09:20:14.523Z,49.05
2022-08-23T09:22:47.522Z,48.65
2022-08-23T09:25:28.290Z,48.36
2022-08-23T09:28:02.522Z,47.28
2022-08-23T09:30:57.510Z,45.73
2022-08-23T09:33:40.588Z,46.52
2022-08-23T09:36:18.798Z,46.17
2022-08-23T09:39:01.113Z,46.21
2022-08-23T09:41:36.758Z,46.37
2022-08-23T09:44:08.381Z,45.46
2022-08-23T09:46:41.824Z,43.72
2022-08-23T09:49:30.644Z,42.45
2022-08-23T09:52:22.199Z,42.67
2022-08-23T09:54:57.268Z,41.38
2022-08-23T09:57:28.076Z,41.25
2022-08-23T10:00:01.615Z,41.16
2022-08-23T10:02:39.608Z,41.08
2022-08-23T10:05:19.870Z,40.80
2022-08-23T10:07:59.980Z,41.26
2022-08-23T10:10:33.874Z,41.53
2022-08-23T10:13:06.052Z,40.94
2022-08-23T10:15:54.342Z,39.98
2022-08-23T10:18:50.964Z,39.90
2022-08-23T10:21:33.097Z,40.70
2022-08-23T10:24:22.702Z,41.24
2022-08-23T10:27:45.525Z,40.42
2022-08-23T10:30:18.072Z,41.43
2022-08-23T10:33:07.166Z,41.42
2022-08-23T10:35:46.804Z,40.76
2022-08-23T10:38:13.366Z,40.61
2022-08-23T10:40:48.823Z,40.76
2022-08-23T10:43:26.845Z,40.55
2022-08-23T10:46:00.446Z,40.30
2022-08-23T10:48:55.254Z,39.06
2022-08-23T10:51:32.818Z,39.19
2022-08-23T10:54:18.556Z,39.02
2022-08-23T10:56:50.864Z,38.96
2022-08-23T10:59:24.097Z,37.80
2022-08-23T11:02:06.764Z,38.37
2022-08-23T11:05:01.577Z,38.47
2022-08-23T11:07:41.466Z,38.52
2022-08-23T11:10:26.565Z,38.26
2022-08-23T11:13:06.119Z,38.01
2022-08-23T11:15:54.817Z,37.72
2022-08-23T11:18:33.794Z,37.85
2022-08-23T11:21:03.595Z,37.28
2022-08-23T11:23:58.230Z,37.03
2022-08-23T11:26:26.208Z,37.56
2022-08-23T11:29:22.484Z,36.84
2022-08-23T11:32:13.160Z,36.79
2022-08-23T11:35:09.377Z,36.19
2022-08-23T11:38:04.304Z,35.32
2022-08-23T11:40:51.738Z,35.52
2022-08-23T11:43:38.597Z,35.86
2022-08-23T11:46:25.662Z,35.02
2022-08-23T11:49:14.680Z,34.42
2022-08-23T11:52:09.082Z,34.75
2022-08-23T11:55:06.945Z,34.80
2022-08-23T11:57:55.275Z,34.93
2022-08-23T12:00:32.135Z,34.93
2022-08-23T12:03:04.556Z,34.23
2022-08-23T12:05:34.285Z,33.39
2022-08-23T12:08:04.229Z,33.25
2022-08-23T12:10:43.468Z,34.03
2022-08-23T12:13:25.435Z,34.76
2022-08-23T12:16:14.958Z,35.38
2022-08-23T12:18:43.806Z,36.56
2022-08-23T12:21:43.737Z,36.35
2022-08-23T12:24:25.171Z,36.01
2022-08-23T12:27:10.847Z,36.02
2022-08-23T12:29:43.632Z,35.86
2022-08-23T12:32:31.194Z,36.19
2022-08-23T12:35:07.339Z,35.92
2022-08-23T12:37:52.612Z,34.27
2022-08-23T12:40:44.204Z,33.20
2022-08-23T12:43:22.990Z,32.89
2022-08-23T12:46:00.880Z,33.87
2022-08-23T12:48:32.133Z,32.77
2022-08-23T12:51:03.070Z,32.87
2022-08-23T12:53:45.115Z,34.07
2022-08-23T12:56:31.855Z,34.58
2022-08-23T12:59:06.891Z,34.93
2022-08-23T13:01:38.440Z,35.36
2022-08-23T13:04:10.976Z,35.57
2022-08-23T13:06:56.612Z,35.68
2022-08-23T13:09:30.105Z,35.91
2022-08-23T13:11:59.027Z,36.04
2022-08-23T13:14:31.960Z,36.03
2022-08-23T13:17:25.213Z,36.28
2022-08-23T13:20:21.699Z,36.86
2022-08-23T13:23:05.720Z,35.86
2022-08-23T13:25:37.609Z,35.38
2022-08-23T13:28:08.651Z,35.02
2022-08-23T13:30:37.624Z,35.09
2022-08-23T13:33:07.620Z,35.25
2022-08-23T13:35:46.900Z,34.30
2022-08-23T13:38:19.905Z,33.60
2022-08-23T13:41:06.491Z,32.75
2022-08-23T13:43:39.091Z,31.36
2022-08-23T13:46:14.856Z,31.65
2022-08-23T13:48:59.559Z,32.26
2022-08-23T13:51:33.386Z,31.56
2022-08-23T13:54:03.425Z,32.79
2022-08-23T13:56:34.142Z,32.47
2022-08-23T13:59:07.683Z,32.30
2022-08-23T14:01:39.630Z,32.48
2022-08-23T14:04:06.331Z,33.11
2022-08-23T14:06:32.955Z,31.94
2022-08-23T14:08:59.577Z,31.19
2022-08-23T14:11:26.307Z,29.82
2022-08-23T14:13:53.007Z,29.67
2022-08-23T14:16:33.281Z,29.77
2022-08-23T14:19:16.714Z,29.31
2022-08-23T14:21:47.275Z,29.61
2022-08-23T14:24:14.307Z,29.81
2022-08-23T14:26:51.673Z,29.73
2022-08-23T14:29:22.575Z,29.99
2022-08-23T14:31:52.549Z,29.72
2022-08-23T14:34:20.174Z,29.84
2022-08-23T14:39:34.185Z,29.67
2022-08-23T14:42:00.935Z,30.15
2022-08-23T14:44:33.160Z,30.62
2022-08-23T14:47:02.862Z,30.53
2022-08-23T14:49:29.501Z,31.68
2022-08-23T14:51:56.233Z,32.54
2022-08-23T14:54:25.377Z,32.53
2022-08-23T14:56:53.291Z,32.94
2022-08-23T14:59:20.499Z,32.70
2022-08-23T15:01:49.256Z,32.27
2022-08-23T15:04:19.246Z,32.27
2022-08-23T15:07:14.068Z,31.95
2022-08-23T15:09:33.161Z,31.79
2022-08-23T15:14:46.564Z,30.85
2022-08-23T15:17:13.950Z,29.03
2022-08-23T15:19:40.900Z,28.43
2022-08-23T15:22:18.715Z,29.09
2022-08-23T15:24:49.766Z,28.48
2022-08-23T15:27:17.987Z,29.42
2022-08-23T15:29:44.725Z,29.34
2022-08-23T15:32:12.699Z,29.86
2022-08-23T15:34:40.159Z,29.41
2022-08-23T15:37:13.121Z,28.80
2022-08-23T15:39:40.545Z,29.45
2022-08-23T15:42:07.248Z,29.44
2022-08-23T15:44:33.887Z,29.48
2022-08-23T15:47:02.082Z,28.88
2022-08-23T15:49:32.864Z,29.54
2022-08-23T15:52:02.232Z,29.63
2022-08-23T15:54:28.964Z,29.60
2022-08-23T15:56:55.654Z,29.72
2022-08-23T15:59:22.364Z,29.64
2022-08-23T16:01:49.040Z,30.27
2022-08-23T16:04:15.703Z,30.97
2022-08-23T16:06:42.573Z,30.96
2022-08-23T16:09:19.194Z,31.21
2022-08-23T16:11:45.827Z,31.46
2022-08-23T16:14:12.717Z,31.66
2022-08-23T16:16:40.642Z,31.46
2022-08-23T16:19:08.835Z,32.07
2022-08-23T16:21:36.693Z,31.83
2022-08-23T16:24:04.007Z,31.66
2022-08-23T16:26:35.035Z,32.30
2022-08-23T16:29:04.293Z,32.63
2022-08-23T16:31:39.005Z,31.54
2022-08-23T16:34:09.752Z,31.56
2022-08-23T16:36:37.117Z,31.62
2022-08-23T16:39:05.159Z,31.88
2022-08-23T16:41:31.802Z,32.07
2022-08-23T16:43:58.429Z,31.83
2022-08-23T16:46:25.762Z,31.23
2022-08-23T16:48:52.457Z,31.09
2022-08-23T16:51:19.621Z,30.96
2022-08-23T16:54:01.564Z,31.07
2022-08-23T16:56:31.962Z,31.69
2022-08-23T16:58:59.406Z,31.42
2022-08-23T17:01:27.159Z,31.50
2022-08-23T17:03:53.893Z,31.37
2022-08-23T17:06:20.919Z,31.70
2022-08-23T17:08:48.214Z,31.83
2022-08-23T17:11:17.539Z,32.06
2022-08-23T17:13:44.451Z,32.21
2022-08-23T17:16:11.436Z,32.54
2022-08-23T17:18:38.770Z,32.93
2022-08-23T17:21:06.689Z,32.93
2022-08-23T17:23:37.742Z,33.48
2022-08-23T17:26:07.887Z,33.34
2022-08-23T17:28:34.696Z,33.25
2022-08-23T17:31:01.614Z,33.92
2022-08-23T17:33:28.526Z,34.38
2022-08-23T17:35:55.125Z,34.95
2022-08-23T17:38:21.750Z,35.35
2022-08-23T17:40:49.697Z,35.90
2022-08-23T17:43:16.357Z,35.92
2022-08-23T17:45:49.267Z,36.36
2022-08-23T17:48:17.732Z,36.64
2022-08-23T17:50:46.159Z,37.11
2022-08-23T17:53:14.635Z,37.14
2022-08-23T17:55:42.345Z,38.18
2022-08-23T17:58:10.265Z,38.09
2022-08-23T18:00:39.166Z,38.80
2022-08-23T18:03:06.208Z,39.04
2022-08-23T18:05:34.910Z,40.36
2022-08-23T18:08:01.936Z,41.03
2022-08-23T18:10:30.155Z,41.35
2022-08-23T18:12:58.010Z,41.53
2022-08-23T18:15:24.840Z,42.31
2022-08-23T18:17:52.235Z,42.39
2022-08-23T18:20:26.528Z,42.58
2022-08-23T18:22:54.565Z,43.04
2022-08-23T18:25:21.202Z,43.07
2022-08-23T18:28:06.266Z,43.25
2022-08-23T18:30:57.603Z,43.45
2022-08-23T18:33:26.586Z,44.04
2022-08-23T18:35:59.781Z,44.21
2022-08-23T18:38:26.391Z,44.75
2022-08-23T18:40:53.087Z,45.47
2022-08-23T18:43:25.146Z,45.75
2022-08-23T18:45:54.576Z,46.12
2022-08-23T18:48:22.763Z,46.74
2022-08-23T18:50:50.688Z,46.97
2022-08-23T18:53:19.503Z,47.48
2022-08-23T18:55:46.815Z,47.55
2022-08-23T18:58:13.416Z,47.63
2022-08-23T19:00:41.806Z,47.98
2022-08-23T19:03:09.411Z,48.19
2022-08-23T19:05:41.639Z,48.54
2022-08-23T19:08:10.015Z,48.70
2022-08-23T19:10:36.982Z,49.04
2022-08-23T19:13:04.506Z,48.96
2022-08-23T19:15:34.067Z,49.32
2022-08-23T19:18:01.814Z,49.59
2022-08-23T19:20:28.944Z,49.77
2022-08-23T19:22:57.303Z,49.75
2022-08-23T19:25:24.445Z,49.79
2022-08-23T19:27:51.212Z,49.52
2022-08-23T19:30:17.978Z,49.55
2022-08-23T19:32:45.179Z,49.56
2022-08-23T19:35:12.987Z,49.47
2022-08-23T19:37:39.629Z,49.37
2022-08-23T19:40:07.215Z,49.38
2022-08-23T19:42:36.950Z,49.31
2022-08-23T19:45:05.074Z,49.33
2022-08-23T19:47:31.756Z,49.21
2022-08-23T19:49:58.775Z,49.05
2022-08-23T19:52:26.028Z,49.18
2022-08-23T19:54:53.233Z,49.23
2022-08-23T19:57:20.302Z,49.46
2022-08-23T19:59:46.944Z,49.33
2022-08-23T20:02:14.464Z,49.49
2022-08-23T20:04:41.259Z,49.06
2022-08-23T20:07:09.072Z,49.17
2022-08-23T20:09:35.744Z,49.32
2022-08-23T20:12:03.249Z,49.15
2022-08-23T20:14:32.018Z,49.16
2022-08-23T20:16:59.813Z,49.59
2022-08-23T20:19:26.747Z,49.72
2022-08-23T20:22:16.228Z,49.62
2022-08-23T20:24:51.625Z,50.02
2022-08-23T20:27:25.435Z,50.13
2022-08-23T20:29:58.985Z,49.90
2022-08-23T20:32:26.389Z,50.06
2022-08-23T20:34:53.220Z,50.23
2022-08-23T20:37:19.801Z,50.25
2022-08-23T20:39:46.451Z,50.67
2022-08-23T20:42:13.159Z,51.17
2022-08-23T20:44:39.795Z,51.30
2022-08-23T20:47:06.437Z,52.05
2022-08-23T20:49:33.095Z,51.97
2022-08-23T20:51:59.683Z,52.39
2022-08-23T20:54:26.340Z,53.15
2022-08-23T20:56:53.260Z,53.95
2022-08-23T20:59:20.668Z,54.63
2022-08-23T21:01:50.333Z,55.60
2022-08-23T21:04:18.327Z,56.52
2022-08-23T21:06:50.691Z,57.42
2022-08-23T21:09:21.499Z,58.09
2022-08-23T21:11:51.001Z,58.59
2022-08-23T21:14:19.644Z,59.42
2022-08-23T21:16:47.699Z,59.82
2022-08-23T21:19:15.128Z,60.17
2022-08-23T21:21:42.460Z,60.88
2022-08-23T21:24:10.355Z,61.09
2022-08-23T21:26:37.406Z,61.08
2022-08-23T21:29:05.783Z,61.25
2022-08-23T21:31:32.498Z,61.79
2022-08-23T21:34:00.587Z,62.02
2022-08-23T21:36:27.813Z,62.00
2022-08-23T21:38:54.616Z,62.31
2022-08-23T21:41:33.551Z,62.17
2022-08-23T21:44:01.222Z,62.24
2022-08-23T21:46:27.873Z,62.51
2022-08-23T21:48:54.626Z,62.24
2022-08-23T21:51:21.245Z,62.79
2022-08-23T21:53:48.230Z,62.80
2022-08-23T21:56:14.875Z,62.96
2022-08-23T21:58:41.605Z,63.22
2022-08-23T22:01:09.135Z,63.60
2022-08-23T22:03:36.182Z,64.00
2022-08-23T22:06:03.720Z,63.90
2022-08-23T22:08:30.634Z,64.03
2022-08-23T22:10:58.481Z,64.06
2022-08-23T22:13:28.768Z,64.58
2022-08-23T22:15:55.828Z,64.88
2022-08-23T22:18:22.522Z,65.00
2022-08-23T22:20:49.289Z,65.50
2022-08-23T22:23:15.868Z,65.59
2022-08-23T22:25:42.503Z,65.64
2022-08-23T22:28:09.143Z,65.99
2022-08-23T22:30:35.800Z,65.87
2022-08-23T22:33:03.110Z,65.97
2022-08-23T22:35:34.244Z,65.86
2022-08-23T22:38:13.694Z,65.82
2022-08-23T22:40:48.448Z,65.95
2022-08-23T22:43:16.956Z,66.15
2022-08-23T22:45:56.808Z,66.57
2022-08-23T22:48:25.222Z,66.94
2022-08-23T22:51:04.169Z,66.91
2022-08-23T22:53:30.749Z,67.05
2022-08-23T22:55:57.332Z,66.80
2022-08-23T22:58:23.931Z,66.87
2022-08-23T23:00:50.527Z,66.74
2022-08-23T23:03:17.788Z,66.87
2022-08-23T23:05:44.899Z,67.16
2022-08-23T23:08:29.569Z,67.42
2022-08-23T23:11:02.007Z,67.90
2022-08-23T23:13:31.555Z,67.85
2022-08-23T23:16:02.265Z,68.36
2022-08-23T23:18:28.870Z,68.36
2022-08-23T23:21:00.213Z,68.66
2022-08-23T23:23:28.767Z,68.62
2022-08-23T23:25:56.250Z,68.67
2022-08-23T23:28:23.366Z,68.55
2022-08-23T23:30:52.652Z,68.48
2022-08-23T23:33:21.050Z,68.67
2022-08-23T23:35:48.629Z,68.78
2022-08-23T23:38:15.832Z,68.90
2022-08-23T23:40:43.723Z,69.20
2022-08-23T23:43:13.170Z,69.37
2022-08-23T23:45:41.172Z,69.68
2022-08-23T23:48:08.425Z,69.90
2022-08-23T23:50:36.645Z,69.96
2022-08-23T23:53:04.376Z,69.91
2022-08-23T23:55:31.096Z,70.09
2022-08-23T23:57:58.612Z,69.82
